createdAt,value
2023-05-10T00:00:30.232Z,100694.72
2023-05-10T00:02:57.580Z,100684.97
2023-05-10T00:05:24.689Z,100685.84
2023-05-10T00:07:51.856Z,100678.75
2023-05-10T00:10:19.333Z,100689.34
2023-05-10T00:12:46.460Z,100685.78
2023-05-10T00:15:13.766Z,100687.56
2023-05-10T00:17:41.309Z,100684.91
2023-05-10T00:20:09.151Z,100689.38
2023-05-10T00:22:36.431Z,100689.38
2023-05-10T00:25:03.831Z,100687.66
2023-05-10T00:27:30.838Z,100689.44
2023-05-10T00:29:58.030Z,100685.03
2023-05-10T00:32:25.196Z,100690.31
2023-05-10T00:34:52.495Z,100685.00
2023-05-10T00:37:19.537Z,100682.38
2023-05-10T00:39:46.600Z,100688.53
2023-05-10T00:42:13.816Z,100681.53
2023-05-10T00:44:40.865Z,100685.91
2023-05-10T00:47:08.714Z,100676.22
2023-05-10T00:49:37.339Z,100686.81
2023-05-10T00:52:04.824Z,100681.50
2023-05-10T00:54:32.072Z,100681.50
2023-05-10T00:56:59.810Z,100681.50
2023-05-10T00:59:27.593Z,100683.25
2023-05-10T01:01:55.169Z,100685.97
2023-05-10T01:04:26.663Z,100677.13
2023-05-10T01:06:54.718Z,100676.25
2023-05-10T01:09:23.337Z,100679.81
2023-05-10T01:11:51.424Z,100677.16
2023-05-10T01:14:20.861Z,100681.56
2023-05-10T01:16:50.001Z,100680.69
2023-05-10T01:19:29.287Z,100679.78
2023-05-10T01:22:39.625Z,100677.13
2023-05-10T01:25:31.375Z,100679.78
2023-05-10T01:28:29.127Z,100676.25
2023-05-10T01:31:31.283Z,100672.78
2023-05-10T01:34:17.300Z,100676.31
2023-05-10T01:36:59.807Z,100672.78
2023-05-10T01:39:46.269Z,100663.94
2023-05-10T01:42:28.410Z,100677.16
2023-05-10T01:45:01.445Z,100673.69
2023-05-10T01:47:41.485Z,100674.59
2023-05-10T01:50:17.118Z,100676.34
2023-05-10T01:52:51.053Z,100677.38
2023-05-10T01:55:21.391Z,100674.00
2023-05-10T01:57:53.630Z,100676.75
2023-05-10T02:00:21.883Z,100674.16
2023-05-10T02:02:50.818Z,100677.66
2023-05-10T02:05:19.188Z,100669.84
2023-05-10T02:07:47.373Z,100672.56
2023-05-10T02:10:15.656Z,100672.63
2023-05-10T02:12:47.077Z,100677.91
2023-05-10T02:15:22.008Z,100679.66
2023-05-10T02:17:50.105Z,100692.88
2023-05-10T02:20:20.202Z,100687.53
2023-05-10T02:22:50.473Z,100690.13
2023-05-10T02:25:20.276Z,100690.97
2023-05-10T02:27:49.203Z,100704.19
2023-05-10T02:30:18.815Z,100697.97
2023-05-10T02:32:46.523Z,100700.63
2023-05-10T02:35:13.841Z,100705.03
2023-05-10T02:37:42.149Z,100705.03
2023-05-10T02:40:10.343Z,100711.22
2023-05-10T02:42:39.859Z,100709.50
2023-05-10T02:45:13.495Z,100705.13
2023-05-10T02:47:40.907Z,100706.88
2023-05-10T02:50:09.238Z,100703.31
2023-05-10T02:52:55.425Z,100698.13
2023-05-10T02:55:33.401Z,100701.66
2023-05-10T02:58:02.908Z,100711.38
2023-05-10T03:00:30.575Z,100711.41
2023-05-10T03:02:57.802Z,100706.09
2023-05-10T03:05:25.024Z,100709.69
2023-05-10T03:07:53.252Z,100705.25
2023-05-10T03:10:24.232Z,100710.41
2023-05-10T03:13:36.296Z,100706.84
2023-05-10T03:16:12.807Z,100705.97
2023-05-10T03:18:55.954Z,100708.59
2023-05-10T03:21:27.141Z,100706.84
2023-05-10T03:24:08.698Z,100704.19
2023-05-10T03:26:38.240Z,100706.91
2023-05-10T03:29:07.275Z,100712.16
2023-05-10T03:31:34.474Z,100718.28
2023-05-10T03:34:02.285Z,100720.03
2023-05-10T03:36:29.437Z,100719.19
2023-05-10T03:38:56.478Z,100720.97
2023-05-10T03:41:23.616Z,100728.00
2023-05-10T03:43:50.630Z,100728.00
2023-05-10T03:46:17.675Z,100730.63
2023-05-10T03:48:44.866Z,100728.00
2023-05-10T03:51:11.985Z,100732.41
2023-05-10T03:53:38.997Z,100736.81
2023-05-10T03:56:06.218Z,100729.78
2023-05-10T03:58:33.471Z,100734.22
2023-05-10T04:01:00.627Z,100732.47
2023-05-10T04:03:27.796Z,100736.84
2023-05-10T04:06:02.884Z,100735.06
2023-05-10T04:08:30.262Z,100733.28
2023-05-10T04:11:10.647Z,100742.97
2023-05-10T04:13:38.225Z,100742.19
2023-05-10T04:16:06.380Z,100749.28
2023-05-10T04:18:33.731Z,100744.00
2023-05-10T04:21:00.792Z,100742.25
2023-05-10T04:23:28.811Z,100736.06
2023-05-10T04:26:03.079Z,100746.63
2023-05-10T04:28:30.174Z,100749.25
2023-05-10T04:31:11.423Z,100737.81
2023-05-10T04:33:38.552Z,100745.69
2023-05-10T04:36:06.347Z,100745.66
2023-05-10T04:38:33.414Z,100747.38
2023-05-10T04:41:09.046Z,100742.91
2023-05-10T04:43:37.264Z,100736.72
2023-05-10T04:46:05.304Z,100749.00
2023-05-10T04:48:32.452Z,100745.44
2023-05-10T04:50:59.539Z,100741.03
2023-05-10T04:53:26.790Z,100748.06
2023-05-10T04:55:53.957Z,100757.75
2023-05-10T04:58:21.001Z,100752.44
2023-05-10T05:00:48.142Z,100756.88
2023-05-10T05:03:15.392Z,100753.28
2023-05-10T05:05:42.555Z,100750.56
2023-05-10T05:08:09.932Z,100759.25
2023-05-10T05:10:37.064Z,100758.28
2023-05-10T05:13:04.152Z,100754.56
2023-05-10T05:15:31.780Z,100768.38
2023-05-10T05:17:59.029Z,100763.69
2023-05-10T05:20:26.083Z,100762.63
2023-05-10T05:22:53.256Z,100766.25
2023-05-10T05:25:20.345Z,100768.09
2023-05-10T05:27:47.535Z,100767.19
2023-05-10T05:30:14.766Z,100774.16
2023-05-10T05:32:41.870Z,100777.59
2023-05-10T05:35:09.400Z,100771.31
2023-05-10T05:37:36.632Z,100773.94
2023-05-10T05:40:04.429Z,100781.81
2023-05-10T05:42:32.648Z,100780.81
2023-05-10T05:45:00.110Z,100785.19
2023-05-10T05:47:27.203Z,100781.63
2023-05-10T05:49:54.240Z,100782.53
2023-05-10T05:52:22.257Z,100784.50
2023-05-10T05:54:49.353Z,100785.59
2023-05-10T05:57:16.409Z,100791.03
2023-05-10T05:59:47.250Z,100792.88
2023-05-10T06:02:14.474Z,100789.34
2023-05-10T06:04:44.450Z,100790.94
2023-05-10T06:07:12.136Z,100796.84
2023-05-10T06:09:39.247Z,100802.94
2023-05-10T06:12:06.524Z,100798.34
2023-05-10T06:14:33.629Z,100807.19
2023-05-10T06:17:01.170Z,100821.34
2023-05-10T06:19:28.354Z,100812.50
2023-05-10T06:21:55.687Z,100813.34
2023-05-10T06:24:22.844Z,100818.66
2023-05-10T06:26:51.240Z,100817.78
2023-05-10T06:29:18.580Z,100816.84
2023-05-10T06:31:45.654Z,100822.00
2023-05-10T06:34:13.287Z,100829.81
2023-05-10T06:36:40.422Z,100820.84
2023-05-10T06:39:08.107Z,100824.16
2023-05-10T06:41:35.244Z,100826.53
2023-05-10T06:44:02.247Z,100834.94
2023-05-10T06:46:29.288Z,100824.88
2023-05-10T06:48:56.305Z,100828.00
2023-05-10T06:51:23.344Z,100827.00
2023-05-10T06:53:50.383Z,100829.31
2023-05-10T06:56:17.720Z,100832.56
2023-05-10T06:58:44.721Z,100832.25
2023-05-10T07:01:11.995Z,100831.78
2023-05-10T07:03:39.291Z,100833.84
2023-05-10T07:06:11.331Z,100825.97
2023-05-10T07:08:42.933Z,100839.28
2023-05-10T07:11:10.052Z,100840.91
2023-05-10T07:13:37.505Z,100841.25
2023-05-10T07:16:05.333Z,100838.38
2023-05-10T07:18:32.519Z,100848.31
2023-05-10T07:20:59.609Z,100853.13
2023-05-10T07:23:26.617Z,100855.41
2023-05-10T07:25:54.401Z,100856.69
2023-05-10T07:28:21.573Z,100859.47
2023-05-10T07:30:49.079Z,100862.03
2023-05-10T07:33:16.870Z,100856.28
2023-05-10T07:35:44.568Z,100856.69
2023-05-10T07:38:14.685Z,100857.06
2023-05-10T07:40:41.732Z,100860.34
2023-05-10T07:43:08.778Z,100855.84
2023-05-10T07:45:35.957Z,100862.91
2023-05-10T07:48:03.350Z,100861.16
2023-05-10T07:50:30.602Z,100867.34
2023-05-10T07:52:57.768Z,100879.41
2023-05-10T07:55:24.929Z,100881.78
2023-05-10T07:57:52.156Z,100886.81
2023-05-10T08:00:20.950Z,100882.72
2023-05-10T08:02:48.554Z,100885.47
2023-05-10T08:05:16.427Z,100890.78
2023-05-10T08:07:43.905Z,100890.78
2023-05-10T08:10:12.352Z,100900.63
2023-05-10T08:12:39.741Z,100902.50
2023-05-10T08:15:08.080Z,100906.16
2023-05-10T08:17:35.272Z,100908.75
2023-05-10T08:20:02.524Z,100918.31
2023-05-10T08:22:29.640Z,100919.25
2023-05-10T08:24:56.835Z,100917.44
2023-05-10T08:27:24.002Z,100923.59
2023-05-10T08:29:51.124Z,100931.50
2023-05-10T08:32:19.160Z,100927.88
2023-05-10T08:34:46.350Z,100924.84
2023-05-10T08:37:14.601Z,100921.50
2023-05-10T08:39:42.148Z,100917.22
2023-05-10T08:42:10.144Z,100919.03
2023-05-10T08:44:38.042Z,100919.94
2023-05-10T08:47:10.253Z,100924.69
2023-05-10T08:49:38.791Z,100922.03
2023-05-10T08:52:06.961Z,100927.72
2023-05-10T08:54:35.999Z,100934.31
2023-05-10T08:57:04.564Z,100933.41
2023-05-10T08:59:31.946Z,100936.63
2023-05-10T09:02:00.582Z,100936.25
2023-05-10T09:04:30.617Z,100932.69
2023-05-10T09:06:58.131Z,100937.91
2023-05-10T09:09:26.332Z,100936.88
2023-05-10T09:11:54.359Z,100944.78
2023-05-10T09:14:21.515Z,100941.53
2023-05-10T09:16:48.970Z,100947.56
2023-05-10T09:19:16.335Z,100941.66
2023-05-10T09:21:44.186Z,100941.63
2023-05-10T09:24:11.490Z,100947.84
2023-05-10T09:26:49.552Z,100950.44
2023-05-10T09:29:17.679Z,100953.97
2023-05-10T09:31:53.554Z,100947.13
2023-05-10T09:34:31.849Z,100950.22
2023-05-10T09:37:02.400Z,100946.72
2023-05-10T09:39:38.426Z,100950.41
2023-05-10T09:42:11.650Z,100944.91
2023-05-10T09:44:39.389Z,100951.34
2023-05-10T09:47:06.603Z,100957.09
2023-05-10T09:49:34.328Z,100958.25
2023-05-10T09:52:06.529Z,100959.28
2023-05-10T09:54:35.167Z,100956.31
2023-05-10T09:57:02.479Z,100960.66
2023-05-10T09:59:30.553Z,100959.97
2023-05-10T10:02:00.730Z,100965.16
2023-05-10T10:04:28.488Z,100961.19
2023-05-10T10:07:06.263Z,100966.91
2023-05-10T10:09:35.026Z,100960.84
2023-05-10T10:12:03.411Z,100967.03
2023-05-10T10:14:31.146Z,100967.16
2023-05-10T10:17:06.727Z,100966.28
2023-05-10T10:19:38.291Z,100959.28
2023-05-10T10:22:06.822Z,100957.97
2023-05-10T10:24:34.406Z,100960.66
2023-05-10T10:27:22.674Z,100959.84
2023-05-10T10:30:17.694Z,100971.25
2023-05-10T10:33:07.955Z,100961.84
2023-05-10T10:35:46.868Z,100967.66
2023-05-10T10:38:15.067Z,100963.16
2023-05-10T10:40:42.084Z,100965.44
2023-05-10T10:43:30.003Z,100967.88
2023-05-10T10:46:26.524Z,100959.63
2023-05-10T10:49:12.101Z,100966.78
2023-05-10T10:51:40.222Z,100966.56
2023-05-10T10:54:12.029Z,100970.63
2023-05-10T10:56:39.340Z,100974.97
2023-05-10T10:59:06.380Z,100974.72
2023-05-10T11:01:36.849Z,100975.34
2023-05-10T11:04:04.563Z,100975.94
2023-05-10T11:06:37.071Z,100966.03
2023-05-10T11:09:10.489Z,100968.38
2023-05-10T11:11:49.380Z,100973.09
2023-05-10T11:14:23.533Z,100962.53
2023-05-10T11:16:52.490Z,100966.69
2023-05-10T11:19:20.866Z,100967.97
2023-05-10T11:22:05.858Z,100978.91
2023-05-10T11:24:34.534Z,100978.63
2023-05-10T11:27:02.078Z,100984.63
2023-05-10T11:29:29.178Z,100974.69
2023-05-10T11:32:00.238Z,100981.13
2023-05-10T11:34:36.239Z,100975.50
2023-05-10T11:37:03.409Z,100980.75
2023-05-10T11:39:32.982Z,100990.69
2023-05-10T11:42:00.531Z,100983.03
2023-05-10T11:44:32.348Z,100991.44
2023-05-10T11:47:03.332Z,100991.03
2023-05-10T11:52:12.040Z,100980.41
2023-05-10T11:54:39.197Z,100988.75
2023-05-10T11:57:06.221Z,100988.88
2023-05-10T11:59:33.318Z,100991.94
2023-05-10T12:02:00.830Z,100997.59
2023-05-10T12:04:30.492Z,100993.09
2023-05-10T12:06:57.866Z,100995.25
2023-05-10T12:09:39.597Z,100993.09
2023-05-10T12:12:11.145Z,101000.06
2023-05-10T12:14:38.268Z,101006.34
2023-05-10T12:17:05.569Z,101007.28
2023-05-10T12:19:40.273Z,101009.75
2023-05-10T12:22:07.728Z,101010.00
2023-05-10T12:24:39.847Z,101013.22
2023-05-10T12:27:09.433Z,101014.22
2023-05-10T12:29:36.990Z,101018.41
2023-05-10T12:32:04.271Z,101014.25
2023-05-10T12:34:39.647Z,101010.56
2023-05-10T12:37:09.829Z,101016.38
2023-05-10T12:39:45.178Z,101006.44
2023-05-10T12:42:12.417Z,101008.94
2023-05-10T12:44:41.162Z,101011.41
2023-05-10T12:47:08.528Z,101012.03
2023-05-10T12:49:36.044Z,101010.84
2023-05-10T12:52:03.306Z,101010.91
2023-05-10T12:54:30.445Z,101008.31
2023-05-10T12:56:57.508Z,101010.81
2023-05-10T12:59:26.218Z,101018.28
2023-05-10T13:01:53.306Z,101024.75
2023-05-10T13:04:20.892Z,101021.69
2023-05-10T13:06:48.002Z,101017.63
2023-05-10T13:09:15.091Z,101022.31
2023-05-10T13:11:42.441Z,101019.31
2023-05-10T13:14:09.553Z,101024.28
2023-05-10T13:16:36.774Z,101017.44
2023-05-10T13:19:04.040Z,101023.97
2023-05-10T13:21:31.469Z,101024.41
2023-05-10T13:23:58.936Z,101025.75
2023-05-10T13:26:26.739Z,101028.94
2023-05-10T13:28:53.722Z,101027.81
2023-05-10T13:31:21.662Z,101021.41
2023-05-10T13:33:48.734Z,101021.97
2023-05-10T13:36:16.135Z,101031.31
2023-05-10T13:38:43.256Z,101020.25
2023-05-10T13:41:11.629Z,101028.69
2023-05-10T13:43:40.196Z,101022.09
2023-05-10T13:46:07.222Z,101029.75
2023-05-10T13:48:35.237Z,101028.84
2023-05-10T13:51:03.595Z,101030.13
2023-05-10T13:53:30.809Z,101028.59
2023-05-10T13:55:58.221Z,101027.97
2023-05-10T13:58:25.441Z,101030.88
2023-05-10T14:00:52.463Z,101029.25
2023-05-10T14:03:19.638Z,101036.38
2023-05-10T14:05:46.758Z,101034.63
2023-05-10T14:08:15.347Z,101030.19
2023-05-10T14:10:43.030Z,101035.56
2023-05-10T14:13:10.046Z,101033.00
2023-05-10T14:15:37.162Z,101033.91
2023-05-10T14:18:04.323Z,101030.34
2023-05-10T14:20:33.111Z,101036.50
2023-05-10T14:23:00.833Z,101032.00
2023-05-10T14:25:27.936Z,101020.53
2023-05-10T14:27:55.791Z,101023.91
2023-05-10T14:30:22.857Z,101028.88
2023-05-10T14:32:50.086Z,101036.31
2023-05-10T14:35:19.456Z,101035.56
2023-05-10T14:37:47.018Z,101035.06
2023-05-10T14:40:15.152Z,101031.19
2023-05-10T14:42:44.114Z,101041.75
2023-05-10T14:45:13.041Z,101032.03
2023-05-10T14:47:40.111Z,101032.16
2023-05-10T14:50:08.057Z,101034.91
2023-05-10T14:52:35.115Z,101035.19
2023-05-10T14:55:02.360Z,101037.22
2023-05-10T14:57:30.661Z,101036.66
2023-05-10T14:59:58.077Z,101050.19
2023-05-10T15:02:25.666Z,101048.66
2023-05-10T15:04:53.169Z,101047.22
2023-05-10T15:07:20.771Z,101049.22
2023-05-10T15:09:47.839Z,101050.25
2023-05-10T15:12:14.906Z,101048.69
2023-05-10T15:14:41.924Z,101047.94
2023-05-10T15:17:09.002Z,101058.63
2023-05-10T15:19:37.031Z,101050.78
2023-05-10T15:22:06.286Z,101052.72
2023-05-10T15:24:33.552Z,101046.69
2023-05-10T15:27:01.121Z,101056.53
2023-05-10T15:29:28.268Z,101059.28
2023-05-10T15:31:55.337Z,101065.50
2023-05-10T15:34:22.389Z,101064.63
2023-05-10T15:36:49.517Z,101069.94
2023-05-10T15:39:16.569Z,101064.59
2023-05-10T15:41:46.022Z,101068.13
2023-05-10T15:44:13.009Z,101073.41
2023-05-10T15:46:40.133Z,101073.50
2023-05-10T15:49:07.551Z,101077.16
2023-05-10T15:51:36.526Z,101073.78
2023-05-10T15:54:07.742Z,101081.00
2023-05-10T15:56:35.314Z,101080.19
2023-05-10T15:59:03.260Z,101079.41
2023-05-10T16:01:31.331Z,101080.41
2023-05-10T16:03:58.370Z,101081.34
2023-05-10T16:06:25.411Z,101086.66
2023-05-10T16:08:54.644Z,101086.66
2023-05-10T16:11:22.110Z,101093.78
2023-05-10T16:13:49.151Z,101096.50
2023-05-10T16:16:16.438Z,101093.00
2023-05-10T16:18:43.759Z,101094.75
2023-05-10T16:21:11.018Z,101106.25
2023-05-10T16:23:38.130Z,101098.41
2023-05-10T16:26:05.124Z,101094.88
2023-05-10T16:28:32.374Z,101091.34
2023-05-10T16:30:59.459Z,101104.66
2023-05-10T16:33:26.836Z,101096.75
2023-05-10T16:35:53.798Z,101103.00
2023-05-10T16:38:21.801Z,101099.50
2023-05-10T16:40:48.876Z,101100.25
2023-05-10T16:43:16.065Z,101100.06
2023-05-10T16:45:43.132Z,101099.84
2023-05-10T16:48:10.244Z,101112.09
2023-05-10T16:50:37.338Z,101110.25
2023-05-10T16:53:04.340Z,101115.53
2023-05-10T16:55:32.565Z,101117.25
2023-05-10T16:58:00.920Z,101119.84
2023-05-10T17:00:27.979Z,101120.72
2023-05-10T17:02:55.346Z,101129.53
2023-05-10T17:05:23.228Z,101128.72
2023-05-10T17:07:50.880Z,101131.41
2023-05-10T17:10:18.076Z,101135.88
2023-05-10T17:12:45.575Z,101141.28
2023-05-10T17:15:13.595Z,101139.59
2023-05-10T17:17:40.686Z,101141.34
2023-05-10T17:20:09.174Z,101136.16
2023-05-10T17:22:36.215Z,101141.53
2023-05-10T17:25:04.178Z,101144.22
2023-05-10T17:27:31.575Z,101144.25
2023-05-10T17:29:58.866Z,101146.91
2023-05-10T17:32:26.491Z,101147.78
2023-05-10T17:34:53.582Z,101149.66
2023-05-10T17:37:20.690Z,101152.25
2023-05-10T17:39:47.708Z,101142.47
2023-05-10T17:42:17.554Z,101142.50
2023-05-10T17:44:44.586Z,101143.44
2023-05-10T17:47:11.684Z,101147.13
2023-05-10T17:49:39.865Z,101146.41
2023-05-10T17:52:07.402Z,101146.47
2023-05-10T17:54:34.511Z,101147.44
2023-05-10T17:57:01.864Z,101154.56
2023-05-10T17:59:28.936Z,101154.59
2023-05-10T18:01:57.421Z,101158.25
2023-05-10T18:04:24.509Z,101160.00
2023-05-10T18:06:51.785Z,101160.88
2023-05-10T18:09:21.166Z,101160.06
2023-05-10T18:11:48.147Z,101172.47
2023-05-10T18:14:20.579Z,101168.91
2023-05-10T18:16:55.839Z,101176.06
2023-05-10T18:19:25.013Z,101167.28
2023-05-10T18:21:52.481Z,101169.13
2023-05-10T18:24:34.219Z,101170.06
2023-05-10T18:27:05.927Z,101170.94
2023-05-10T18:29:33.351Z,101164.78
2023-05-10T18:32:00.516Z,101169.19
2023-05-10T18:34:27.876Z,101173.63
2023-05-10T18:36:54.960Z,101171.81
2023-05-10T18:39:21.979Z,101174.44
2023-05-10T18:41:50.163Z,101167.34
2023-05-10T18:44:18.801Z,101166.50
2023-05-10T18:46:46.341Z,101178.91
2023-05-10T18:49:13.601Z,101185.09
2023-05-10T18:51:40.643Z,101183.31
2023-05-10T18:54:07.712Z,101177.19
2023-05-10T18:56:34.825Z,101176.34
2023-05-10T18:59:01.905Z,101185.16
2023-05-10T19:01:29.019Z,101183.41
2023-05-10T19:03:56.121Z,101179.03
2023-05-10T19:06:23.431Z,101181.72
2023-05-10T19:08:50.877Z,101182.59
2023-05-10T19:11:18.940Z,101176.56
2023-05-10T19:13:46.418Z,101182.75
2023-05-10T19:16:23.208Z,101182.75
2023-05-10T19:18:51.268Z,101183.69
2023-05-10T19:21:18.532Z,101184.56
2023-05-10T19:23:46.267Z,101188.06
2023-05-10T19:26:14.094Z,101183.69
2023-05-10T19:28:42.075Z,101191.63
2023-05-10T19:31:09.161Z,101187.25
2023-05-10T19:33:38.331Z,101195.22
2023-05-10T19:36:07.209Z,101196.09
2023-05-10T19:38:34.758Z,101194.34
2023-05-10T19:41:01.880Z,101197.88
2023-05-10T19:43:34.327Z,101197.91
2023-05-10T19:46:02.874Z,101202.31
2023-05-10T19:48:30.945Z,101211.13
2023-05-10T19:51:03.739Z,101204.94
2023-05-10T19:53:32.169Z,101207.59
2023-05-10T19:56:06.708Z,101217.31
2023-05-10T19:58:34.476Z,101218.19
2023-05-10T20:01:02.115Z,101215.53
2023-05-10T20:03:29.395Z,101216.41
2023-05-10T20:05:56.566Z,101210.25
2023-05-10T20:08:23.527Z,101220.81
2023-05-10T20:10:50.714Z,101222.59
2023-05-10T20:13:17.965Z,101218.22
2023-05-10T20:15:46.192Z,101219.13
2023-05-10T20:18:13.264Z,101220.00
2023-05-10T20:20:40.453Z,101224.41
2023-05-10T20:23:07.587Z,101225.31
2023-05-10T20:25:34.618Z,101222.69
2023-05-10T20:28:03.632Z,101221.81
2023-05-10T20:30:30.933Z,101234.16
2023-05-10T20:32:58.008Z,101228.88
2023-05-10T20:35:25.078Z,101225.38
2023-05-10T20:37:52.080Z,101227.16
2023-05-10T20:40:19.342Z,101226.28
2023-05-10T20:42:47.597Z,101233.34
2023-05-10T20:45:14.786Z,101235.97
2023-05-10T20:47:41.963Z,101241.28
2023-05-10T20:50:09.469Z,101252.72
2023-05-10T20:52:36.483Z,101244.84
2023-05-10T20:55:03.741Z,101245.72
2023-05-10T20:57:30.850Z,101239.56
2023-05-10T20:59:57.907Z,101234.25
2023-05-10T21:02:24.910Z,101240.44
2023-05-10T21:04:52.385Z,101245.72
2023-05-10T21:07:19.457Z,101233.38
2023-05-10T21:09:46.453Z,101233.38
2023-05-10T21:12:13.590Z,101237.81
2023-05-10T21:14:40.663Z,101239.56
2023-05-10T21:17:07.672Z,101248.41
2023-05-10T21:19:34.687Z,101244.00
2023-05-10T21:22:02.143Z,101244.00
2023-05-10T21:24:29.228Z,101254.59
2023-05-10T21:26:56.247Z,101247.50
2023-05-10T21:29:23.213Z,101247.50
2023-05-10T21:31:51.210Z,101250.16
2023-05-10T21:34:18.320Z,101251.94
2023-05-10T21:36:45.384Z,101251.03
2023-05-10T21:39:12.586Z,101249.28
2023-05-10T21:41:39.568Z,101248.41
2023-05-10T21:44:06.675Z,101253.69
2023-05-10T21:46:33.678Z,101254.56
2023-05-10T21:49:00.736Z,101249.28
2023-05-10T21:51:29.175Z,101249.28
2023-05-10T21:53:56.576Z,101248.41
2023-05-10T21:56:23.616Z,101250.13
2023-05-10T21:58:50.837Z,101251.00
2023-05-10T22:01:18.074Z,101252.78
2023-05-10T22:03:45.444Z,101250.13
2023-05-10T22:06:12.990Z,101248.38
2023-05-10T22:08:39.992Z,101251.03
2023-05-10T22:11:07.013Z,101249.28
2023-05-10T22:13:34.018Z,101248.41
2023-05-10T22:16:01.465Z,101244.00
2023-05-10T22:18:28.529Z,101246.63
2023-05-10T22:20:55.596Z,101248.34
2023-05-10T22:23:22.830Z,101254.53
2023-05-10T22:25:49.796Z,101249.28
2023-05-10T22:28:16.798Z,101251.94
2023-05-10T22:30:44.172Z,101247.53
2023-05-10T22:33:11.203Z,101245.75
2023-05-10T22:35:38.133Z,101244.91
2023-05-10T22:38:05.356Z,101250.19
2023-05-10T22:40:32.692Z,101247.56
2023-05-10T22:42:59.692Z,101255.47
2023-05-10T22:45:27.190Z,101257.25
2023-05-10T22:47:54.407Z,101256.38
2023-05-10T22:50:21.748Z,101260.78
2023-05-10T22:52:48.715Z,101259.88
2023-05-10T22:55:15.782Z,101256.34
2023-05-10T22:57:42.962Z,101258.09
2023-05-10T23:00:10.757Z,101258.13
2023-05-10T23:02:37.839Z,101264.25
2023-05-10T23:05:05.770Z,101261.63
2023-05-10T23:07:32.985Z,101267.78
2023-05-10T23:09:59.978Z,101258.97
2023-05-10T23:12:26.977Z,101260.72
2023-05-10T23:14:54.985Z,101258.97
2023-05-10T23:17:22.130Z,101266.00
2023-05-10T23:19:49.071Z,101259.88
2023-05-10T23:22:16.065Z,101266.91
2023-05-10T23:24:43.177Z,101266.91
2023-05-10T23:27:11.399Z,101267.78
2023-05-10T23:29:38.425Z,101272.22
2023-05-10T23:32:05.839Z,101268.66
2023-05-10T23:34:32.928Z,101269.56
2023-05-10T23:37:00.242Z,101266.91
2023-05-10T23:39:27.248Z,101272.19
2023-05-10T23:41:54.718Z,101271.28
2023-05-10T23:44:21.946Z,101263.38
2023-05-10T23:46:48.919Z,101265.13
2023-05-10T23:49:17.328Z,101266.91
2023-05-10T23:51:44.356Z,101260.72
2023-05-10T23:54:11.361Z,101261.59
2023-05-10T23:56:38.472Z,101257.22
2023-05-10T23:59:06.598Z,101260.72
